sensor_id;sensor_type;location;lat;lon;timestamp;P1;durP1;ratioP1;P2;durP2;ratioP2
29344;SDS011;16339;48.748;2.222;2023-07-20T02:12:35;7.80;;;3.00;;
29344;SDS011;16339;48.748;2.222;2023-07-20T02:15:04;8.35;;;3.10;;
29344;SDS011;16339;48.748;2.222;2023-07-20T02:17:34;7.53;;;2.70;;
29344;SDS011;16339;48.748;2.222;2023-07-20T02:20:06;6.43;;;3.17;;
29344;SDS011;16339;48.748;2.222;2023-07-20T02:22:38;8.20;;;3.40;;
29344;SDS011;16339;48.748;2.222;2023-07-20T02:25:16;6.32;;;2.83;;
29344;SDS011;16339;48.748;2.222;2023-07-20T02:34:43;7.80;;;3.25;;
29344;SDS011;16339;48.748;2.222;2023-07-20T02:37:51;11.40;;;3.53;;
29344;SDS011;16339;48.748;2.222;2023-07-20T02:43:29;7.65;;;2.83;;
29344;SDS011;16339;48.748;2.222;2023-07-20T02:45:58;6.13;;;2.97;;
29344;SDS011;16339;48.748;2.222;2023-07-20T02:48:26;10.68;;;3.83;;
29344;SDS011;16339;48.748;2.222;2023-07-20T02:50:55;9.25;;;3.83;;
29344;SDS011;16339;48.748;2.222;2023-07-20T02:53:26;18.60;;;4.00;;
29344;SDS011;16339;48.748;2.222;2023-07-20T02:58:24;7.85;;;3.17;;
29344;SDS011;16339;48.748;2.222;2023-07-20T03:00:53;10.18;;;3.10;;
29344;SDS011;16339;48.748;2.222;2023-07-20T03:03:22;6.50;;;3.00;;
29344;SDS011;16339;48.748;2.222;2023-07-20T03:05:50;6.82;;;3.00;;
29344;SDS011;16339;48.748;2.222;2023-07-20T03:08:21;8.30;;;3.53;;
29344;SDS011;16339;48.748;2.222;2023-07-20T03:10:56;10.93;;;3.30;;
29344;SDS011;16339;48.748;2.222;2023-07-20T03:13:27;5.22;;;3.03;;
29344;SDS011;16339;48.748;2.222;2023-07-20T03:15:55;8.32;;;3.33;;
29344;SDS011;16339;48.748;2.222;2023-07-20T03:18:25;9.43;;;3.25;;
29344;SDS011;16339;48.748;2.222;2023-07-20T03:20:54;5.50;;;3.03;;
29344;SDS011;16339;48.748;2.222;2023-07-20T03:23:25;4.75;;;3.22;;
29344;SDS011;16339;48.748;2.222;2023-07-20T03:26:01;10.07;;;3.63;;
29344;SDS011;16339;48.748;2.222;2023-07-20T03:28:38;13.05;;;3.30;;
29344;SDS011;16339;48.748;2.222;2023-07-20T03:33:38;6.47;;;3.10;;
29344;SDS011;16339;48.748;2.222;2023-07-20T03:39:06;7.13;;;3.78;;
29344;SDS011;16339;48.748;2.222;2023-07-20T03:41:40;5.63;;;3.50;;
29344;SDS011;16339;48.748;2.222;2023-07-20T03:44:08;5.10;;;2.83;;
29344;SDS011;16339;48.748;2.222;2023-07-20T03:46:46;8.18;;;3.00;;
29344;SDS011;16339;48.748;2.222;2023-07-20T03:49:15;12.00;;;3.65;;
29344;SDS011;16339;48.748;2.222;2023-07-20T03:51:44;8.15;;;3.40;;
29344;SDS011;16339;48.748;2.222;2023-07-20T03:54:13;9.10;;;3.40;;
29344;SDS011;16339;48.748;2.222;2023-07-20T03:56:44;8.05;;;3.05;;
29344;SDS011;16339;48.748;2.222;2023-07-20T04:01:41;4.53;;;2.90;;
29344;SDS011;16339;48.748;2.222;2023-07-20T04:04:10;9.18;;;4.22;;
29344;SDS011;16339;48.748;2.222;2023-07-20T04:06:39;14.85;;;8.68;;
29344;SDS011;16339;48.748;2.222;2023-07-20T04:09:09;18.13;;;8.77;;
29344;SDS011;16339;48.748;2.222;2023-07-20T04:11:46;12.80;;;6.80;;
29344;SDS011;16339;48.748;2.222;2023-07-20T04:16:45;7.25;;;3.42;;
29344;SDS011;16339;48.748;2.222;2023-07-20T04:19:16;12.02;;;3.78;;
29344;SDS011;16339;48.748;2.222;2023-07-20T04:21:45;8.82;;;3.22;;
29344;SDS011;16339;48.748;2.222;2023-07-20T04:24:14;7.25;;;3.10;;
29344;SDS011;16339;48.748;2.222;2023-07-20T04:26:43;9.73;;;3.33;;
29344;SDS011;16339;48.748;2.222;2023-07-20T04:29:14;10.57;;;3.40;;
29344;SDS011;16339;48.748;2.222;2023-07-20T04:31:43;7.32;;;3.17;;
29344;SDS011;16339;48.748;2.222;2023-07-20T04:34:13;8.75;;;3.17;;
29344;SDS011;16339;48.748;2.222;2023-07-20T04:36:43;5.20;;;2.97;;
29344;SDS011;16339;48.748;2.222;2023-07-20T04:39:23;9.20;;;3.30;;
29344;SDS011;16339;48.748;2.222;2023-07-20T04:41:54;8.23;;;2.97;;
29344;SDS011;16339;48.748;2.222;2023-07-20T04:46:51;9.18;;;3.35;;
29344;SDS011;16339;48.748;2.222;2023-07-20T04:49:20;5.32;;;3.42;;
29344;SDS011;16339;48.748;2.222;2023-07-20T04:51:49;8.68;;;3.45;;
29344;SDS011;16339;48.748;2.222;2023-07-20T04:54:19;17.63;;;3.78;;
29344;SDS011;16339;48.748;2.222;2023-07-20T04:56:48;11.88;;;3.40;;
29344;SDS011;16339;48.748;2.222;2023-07-20T04:59:20;16.40;;;3.10;;
29344;SDS011;16339;48.748;2.222;2023-07-20T05:01:48;7.85;;;3.60;;
29344;SDS011;16339;48.748;2.222;2023-07-20T05:04:17;9.20;;;4.15;;
29344;SDS011;16339;48.748;2.222;2023-07-20T05:06:49;12.60;;;3.65;;
29344;SDS011;16339;48.748;2.222;2023-07-20T05:09:18;9.68;;;3.33;;
29344;SDS011;16339;48.748;2.222;2023-07-20T05:11:48;7.82;;;3.65;;
29344;SDS011;16339;48.748;2.222;2023-07-20T05:14:16;8.82;;;3.40;;
29344;SDS011;16339;48.748;2.222;2023-07-20T05:19:21;6.07;;;3.55;;
29344;SDS011;16339;48.748;2.222;2023-07-20T05:21:59;9.60;;;3.42;;
29344;SDS011;16339;48.748;2.222;2023-07-20T05:24:29;5.00;;;2.97;;
29344;SDS011;16339;48.748;2.222;2023-07-20T05:27:08;5.45;;;3.30;;
29344;SDS011;16339;48.748;2.222;2023-07-20T05:29:40;10.05;;;3.53;;
29344;SDS011;16339;48.748;2.222;2023-07-20T05:32:12;12.68;;;3.97;;
29344;SDS011;16339;48.748;2.222;2023-07-20T05:34:44;7.10;;;3.60;;
29344;SDS011;16339;48.748;2.222;2023-07-20T05:37:13;10.35;;;4.20;;
29344;SDS011;16339;48.748;2.222;2023-07-20T05:39:42;12.00;;;3.95;;
29344;SDS011;16339;48.748;2.222;2023-07-20T05:42:17;10.85;;;3.72;;
29344;SDS011;16339;48.748;2.222;2023-07-20T05:44:49;7.18;;;3.92;;
29344;SDS011;16339;48.748;2.222;2023-07-20T05:47:21;9.98;;;3.63;;
29344;SDS011;16339;48.748;2.222;2023-07-20T05:49:52;12.55;;;4.13;;
29344;SDS011;16339;48.748;2.222;2023-07-20T05:52:25;13.45;;;4.40;;
29344;SDS011;16339;48.748;2.222;2023-07-20T05:55:20;10.73;;;3.90;;
29344;SDS011;16339;48.748;2.222;2023-07-20T05:57:56;9.65;;;4.18;;
29344;SDS011;16339;48.748;2.222;2023-07-20T06:00:27;10.38;;;3.95;;
29344;SDS011;16339;48.748;2.222;2023-07-20T06:02:57;11.43;;;4.30;;
29344;SDS011;16339;48.748;2.222;2023-07-20T06:05:25;14.07;;;4.15;;
29344;SDS011;16339;48.748;2.222;2023-07-20T06:07:54;10.23;;;3.72;;
29344;SDS011;16339;48.748;2.222;2023-07-20T06:10:25;11.60;;;3.92;;
29344;SDS011;16339;48.748;2.222;2023-07-20T06:13:00;10.75;;;5.47;;
29344;SDS011;16339;48.748;2.222;2023-07-20T06:15:41;9.90;;;4.30;;
29344;SDS011;16339;48.748;2.222;2023-07-20T06:18:12;11.70;;;3.85;;
29344;SDS011;16339;48.748;2.222;2023-07-20T06:20:48;10.82;;;4.35;;
29344;SDS011;16339;48.748;2.222;2023-07-20T06:23:20;10.55;;;3.72;;
29344;SDS011;16339;48.748;2.222;2023-07-20T06:25:55;8.77;;;3.90;;
29344;SDS011;16339;48.748;2.222;2023-07-20T06:28:33;13.38;;;3.67;;
29344;SDS011;16339;48.748;2.222;2023-07-20T06:31:04;13.85;;;3.70;;
29344;SDS011;16339;48.748;2.222;2023-07-20T06:33:33;12.85;;;3.95;;
29344;SDS011;16339;48.748;2.222;2023-07-20T06:39:23;7.97;;;3.95;;
29344;SDS011;16339;48.748;2.222;2023-07-20T06:55:24;12.68;;;3.92;;
29344;SDS011;16339;48.748;2.222;2023-07-20T06:57:53;9.18;;;3.42;;
29344;SDS011;16339;48.748;2.222;2023-07-20T07:03:29;9.68;;;3.38;;
29344;SDS011;16339;48.748;2.222;2023-07-20T07:06:05;10.18;;;3.53;;
29344;SDS011;16339;48.748;2.222;2023-07-20T07:11:29;12.18;;;4.10;;
29344;SDS011;16339;48.748;2.222;2023-07-20T07:16:27;12.27;;;3.42;;
29344;SDS011;16339;48.748;2.222;2023-07-20T07:19:09;12.65;;;3.33;;
29344;SDS011;16339;48.748;2.222;2023-07-20T07:21:39;6.53;;;3.00;;
29344;SDS011;16339;48.748;2.222;2023-07-20T07:24:13;11.95;;;3.65;;
29344;SDS011;16339;48.748;2.222;2023-07-20T07:27:01;10.75;;;3.17;;
29344;SDS011;16339;48.748;2.222;2023-07-20T07:29:30;9.80;;;3.20;;
29344;SDS011;16339;48.748;2.222;2023-07-20T07:31:59;15.45;;;3.67;;
29344;SDS011;16339;48.748;2.222;2023-07-20T07:37:37;5.55;;;3.20;;
29344;SDS011;16339;48.748;2.222;2023-07-20T07:40:07;16.33;;;3.50;;
29344;SDS011;16339;48.748;2.222;2023-07-20T07:45:36;9.93;;;3.38;;
29344;SDS011;16339;48.748;2.222;2023-07-20T07:48:37;5.72;;;2.65;;
29344;SDS011;16339;48.748;2.222;2023-07-20T07:51:06;10.02;;;2.65;;
29344;SDS011;16339;48.748;2.222;2023-07-20T07:53:41;10.77;;;3.30;;
29344;SDS011;16339;48.748;2.222;2023-07-20T07:59:02;5.88;;;2.00;;
29344;SDS011;16339;48.748;2.222;2023-07-20T08:04:15;5.35;;;2.20;;
29344;SDS011;16339;48.748;2.222;2023-07-20T08:06:44;4.18;;;1.90;;
29344;SDS011;16339;48.748;2.222;2023-07-20T08:09:13;4.93;;;1.92;;
29344;SDS011;16339;48.748;2.222;2023-07-20T08:11:42;3.55;;;1.65;;
29344;SDS011;16339;48.748;2.222;2023-07-20T08:14:13;6.05;;;2.15;;
29344;SDS011;16339;48.748;2.222;2023-07-20T08:16:42;4.07;;;1.70;;
29344;SDS011;16339;48.748;2.222;2023-07-20T08:19:11;10.20;;;2.88;;
29344;SDS011;16339;48.748;2.222;2023-07-20T08:21:40;4.30;;;2.08;;
29344;SDS011;16339;48.748;2.222;2023-07-20T08:24:09;5.93;;;2.25;;
29344;SDS011;16339;48.748;2.222;2023-07-20T08:26:40;10.75;;;2.78;;
29344;SDS011;16339;48.748;2.222;2023-07-20T08:31:40;4.95;;;1.58;;
29344;SDS011;16339;48.748;2.222;2023-07-20T08:34:09;9.40;;;1.90;;
29344;SDS011;16339;48.748;2.222;2023-07-20T08:36:40;4.18;;;1.67;;
29344;SDS011;16339;48.748;2.222;2023-07-20T08:39:13;12.45;;;2.20;;
29344;SDS011;16339;48.748;2.222;2023-07-20T08:41:42;4.65;;;1.90;;
29344;SDS011;16339;48.748;2.222;2023-07-20T08:44:11;7.70;;;1.58;;
29344;SDS011;16339;48.748;2.222;2023-07-20T08:46:47;6.68;;;2.00;;
29344;SDS011;16339;48.748;2.222;2023-07-20T08:49:20;3.50;;;2.03;;
29344;SDS011;16339;48.748;2.222;2023-07-20T08:51:49;6.10;;;2.10;;
29344;SDS011;16339;48.748;2.222;2023-07-20T08:54:30;5.75;;;1.98;;
29344;SDS011;16339;48.748;2.222;2023-07-20T08:57:03;4.65;;;1.75;;
29344;SDS011;16339;48.748;2.222;2023-07-20T08:59:35;5.78;;;2.00;;
29344;SDS011;16339;48.748;2.222;2023-07-20T09:02:09;10.43;;;1.80;;
29344;SDS011;16339;48.748;2.222;2023-07-20T09:04:56;3.08;;;1.63;;
29344;SDS011;16339;48.748;2.222;2023-07-20T09:07:27;8.32;;;1.63;;
29344;SDS011;16339;48.748;2.222;2023-07-20T09:10:00;6.28;;;1.90;;
29344;SDS011;16339;48.748;2.222;2023-07-20T09:12:34;4.15;;;1.88;;
29344;SDS011;16339;48.748;2.222;2023-07-20T09:15:06;3.40;;;1.52;;
29344;SDS011;16339;48.748;2.222;2023-07-20T09:17:41;3.23;;;1.30;;
29344;SDS011;16339;48.748;2.222;2023-07-20T09:20:15;5.43;;;1.10;;
29344;SDS011;16339;48.748;2.222;2023-07-20T09:22:45;2.03;;;1.33;;
29344;SDS011;16339;48.748;2.222;2023-07-20T09:25:18;1.38;;;1.02;;
29344;SDS011;16339;48.748;2.222;2023-07-20T09:28:02;2.65;;;1.45;;
29344;SDS011;16339;48.748;2.222;2023-07-20T09:30:33;5.75;;;2.00;;
29344;SDS011;16339;48.748;2.222;2023-07-20T09:33:07;13.45;;;1.73;;
29344;SDS011;16339;48.748;2.222;2023-07-20T09:35:48;2.05;;;1.30;;
29344;SDS011;16339;48.748;2.222;2023-07-20T09:38:16;4.45;;;1.50;;
29344;SDS011;16339;48.748;2.222;2023-07-20T09:40:45;1.73;;;1.08;;
29344;SDS011;16339;48.748;2.222;2023-07-20T09:43:17;2.95;;;1.08;;
29344;SDS011;16339;48.748;2.222;2023-07-20T09:45:47;7.22;;;1.70;;
29344;SDS011;16339;48.748;2.222;2023-07-20T09:48:23;4.43;;;1.40;;
29344;SDS011;16339;48.748;2.222;2023-07-20T09:50:59;3.90;;;1.20;;
29344;SDS011;16339;48.748;2.222;2023-07-20T09:53:29;2.78;;;1.30;;
29344;SDS011;16339;48.748;2.222;2023-07-20T09:56:00;1.57;;;1.00;;
29344;SDS011;16339;48.748;2.222;2023-07-20T09:58:33;3.53;;;1.17;;
29344;SDS011;16339;48.748;2.222;2023-07-20T10:01:03;1.35;;;0.90;;
29344;SDS011;16339;48.748;2.222;2023-07-20T10:03:44;2.75;;;1.30;;
29344;SDS011;16339;48.748;2.222;2023-07-20T10:06:15;3.80;;;1.30;;
29344;SDS011;16339;48.748;2.222;2023-07-20T10:08:52;1.10;;;1.00;;
29344;SDS011;16339;48.748;2.222;2023-07-20T10:11:30;1.75;;;0.98;;
29344;SDS011;16339;48.748;2.222;2023-07-20T10:19:09;3.22;;;0.90;;
29344;SDS011;16339;48.748;2.222;2023-07-20T10:21:47;7.80;;;2.50;;
29344;SDS011;16339;48.748;2.222;2023-07-20T10:24:22;1.75;;;1.30;;
29344;SDS011;16339;48.748;2.222;2023-07-20T10:26:51;2.25;;;1.20;;
29344;SDS011;16339;48.748;2.222;2023-07-20T10:29:21;5.07;;;1.17;;
29344;SDS011;16339;48.748;2.222;2023-07-20T10:34:24;1.35;;;0.98;;
29344;SDS011;16339;48.748;2.222;2023-07-20T10:36:53;2.63;;;1.25;;
29344;SDS011;16339;48.748;2.222;2023-07-20T10:39:22;1.25;;;1.15;;
29344;SDS011;16339;48.748;2.222;2023-07-20T10:42:02;2.10;;;1.27;;
29344;SDS011;16339;48.748;2.222;2023-07-20T10:44:34;1.88;;;1.20;;
29344;SDS011;16339;48.748;2.222;2023-07-20T10:47:10;3.88;;;1.35;;
29344;SDS011;16339;48.748;2.222;2023-07-20T10:52:38;1.10;;;1.00;;
29344;SDS011;16339;48.748;2.222;2023-07-20T10:55:14;1.85;;;1.02;;
29344;SDS011;16339;48.748;2.222;2023-07-20T10:58:12;3.42;;;1.10;;
29344;SDS011;16339;48.748;2.222;2023-07-20T11:03:31;5.18;;;1.30;;
29344;SDS011;16339;48.748;2.222;2023-07-20T11:09:14;4.25;;;1.10;;
29344;SDS011;16339;48.748;2.222;2023-07-20T11:12:08;2.38;;;1.13;;
29344;SDS011;16339;48.748;2.222;2023-07-20T11:14:55;1.75;;;1.00;;
29344;SDS011;16339;48.748;2.222;2023-07-20T11:17:34;2.75;;;1.10;;
29344;SDS011;16339;48.748;2.222;2023-07-20T11:20:04;1.20;;;1.08;;
29344;SDS011;16339;48.748;2.222;2023-07-20T11:23:01;1.33;;;1.13;;
29344;SDS011;16339;48.748;2.222;2023-07-20T11:26:00;4.38;;;1.38;;
29344;SDS011;16339;48.748;2.222;2023-07-20T11:28:29;2.03;;;1.10;;
29344;SDS011;16339;48.748;2.222;2023-07-20T11:30:58;1.23;;;1.00;;
29344;SDS011;16339;48.748;2.222;2023-07-20T11:33:27;1.52;;;1.15;;
29344;SDS011;16339;48.748;2.222;2023-07-20T11:36:19;3.65;;;1.33;;
29344;SDS011;16339;48.748;2.222;2023-07-20T11:38:48;2.15;;;1.25;;
29344;SDS011;16339;48.748;2.222;2023-07-20T11:41:19;2.45;;;1.05;;
29344;SDS011;16339;48.748;2.222;2023-07-20T11:43:48;1.25;;;1.00;;
29344;SDS011;16339;48.748;2.222;2023-07-20T11:46:17;1.00;;;0.90;;
29344;SDS011;16339;48.748;2.222;2023-07-20T11:48:46;3.25;;;1.30;;
29344;SDS011;16339;48.748;2.222;2023-07-20T11:51:15;2.80;;;1.42;;
29344;SDS011;16339;48.748;2.222;2023-07-20T11:53:45;2.50;;;1.83;;
29344;SDS011;16339;48.748;2.222;2023-07-20T11:56:15;3.92;;;1.20;;
29344;SDS011;16339;48.748;2.222;2023-07-20T11:58:46;1.40;;;1.17;;
29344;SDS011;16339;48.748;2.222;2023-07-20T12:01:15;3.10;;;1.23;;
29344;SDS011;16339;48.748;2.222;2023-07-20T12:03:45;3.38;;;1.58;;
29344;SDS011;16339;48.748;2.222;2023-07-20T12:08:45;4.20;;;1.23;;
29344;SDS011;16339;48.748;2.222;2023-07-20T12:11:14;4.45;;;1.38;;
29344;SDS011;16339;48.748;2.222;2023-07-20T12:14:07;4.13;;;1.20;;
29344;SDS011;16339;48.748;2.222;2023-07-20T12:16:39;5.55;;;1.27;;
29344;SDS011;16339;48.748;2.222;2023-07-20T12:19:38;4.63;;;1.45;;
29344;SDS011;16339;48.748;2.222;2023-07-20T12:25:20;2.25;;;1.30;;
29344;SDS011;16339;48.748;2.222;2023-07-20T12:27:49;4.20;;;1.30;;
29344;SDS011;16339;48.748;2.222;2023-07-20T12:30:23;3.88;;;1.50;;
29344;SDS011;16339;48.748;2.222;2023-07-20T12:32:56;2.47;;;1.05;;
29344;SDS011;16339;48.748;2.222;2023-07-20T12:35:24;3.65;;;1.27;;
29344;SDS011;16339;48.748;2.222;2023-07-20T12:37:53;1.58;;;1.17;;
29344;SDS011;16339;48.748;2.222;2023-07-20T12:40:22;1.92;;;1.20;;
29344;SDS011;16339;48.748;2.222;2023-07-20T12:43:00;1.40;;;1.17;;
29344;SDS011;16339;48.748;2.222;2023-07-20T12:45:33;2.20;;;1.48;;
29344;SDS011;16339;48.748;2.222;2023-07-20T12:48:02;1.90;;;1.50;;
29344;SDS011;16339;48.748;2.222;2023-07-20T12:50:31;3.90;;;2.03;;
29344;SDS011;16339;48.748;2.222;2023-07-20T12:53:00;5.63;;;1.90;;
29344;SDS011;16339;48.748;2.222;2023-07-20T12:55:31;1.98;;;1.30;;
29344;SDS011;16339;48.748;2.222;2023-07-20T12:58:01;3.38;;;1.15;;
29344;SDS011;16339;48.748;2.222;2023-07-20T13:00:36;1.50;;;1.10;;
29344;SDS011;16339;48.748;2.222;2023-07-20T13:03:06;1.90;;;1.45;;
29344;SDS011;16339;48.748;2.222;2023-07-20T13:05:41;7.20;;;1.77;;
29344;SDS011;16339;48.748;2.222;2023-07-20T13:08:15;1.80;;;1.40;;
29344;SDS011;16339;48.748;2.222;2023-07-20T13:10:50;2.55;;;1.10;;
29344;SDS011;16339;48.748;2.222;2023-07-20T13:13:24;2.83;;;1.35;;
29344;SDS011;16339;48.748;2.222;2023-07-20T13:15:55;7.32;;;1.65;;
29344;SDS011;16339;48.748;2.222;2023-07-20T13:18:24;4.20;;;1.58;;
29344;SDS011;16339;48.748;2.222;2023-07-20T13:21:16;6.93;;;1.25;;
29344;SDS011;16339;48.748;2.222;2023-07-20T13:23:54;3.13;;;1.02;;
29344;SDS011;16339;48.748;2.222;2023-07-20T13:26:25;1.55;;;1.10;;
29344;SDS011;16339;48.748;2.222;2023-07-20T13:32:15;1.88;;;1.10;;
29344;SDS011;16339;48.748;2.222;2023-07-20T13:37:36;2.72;;;0.95;;
29344;SDS011;16339;48.748;2.222;2023-07-20T13:40:09;4.40;;;1.10;;
29344;SDS011;16339;48.748;2.222;2023-07-20T13:42:44;2.55;;;1.13;;
29344;SDS011;16339;48.748;2.222;2023-07-20T13:45:50;1.77;;;1.10;;
29344;SDS011;16339;48.748;2.222;2023-07-20T13:51:33;1.50;;;1.00;;
29344;SDS011;16339;48.748;2.222;2023-07-20T13:54:03;4.55;;;1.17;;
29344;SDS011;16339;48.748;2.222;2023-07-20T13:56:32;1.23;;;1.10;;
29344;SDS011;16339;48.748;2.222;2023-07-20T13:59:03;1.42;;;1.17;;
29344;SDS011;16339;48.748;2.222;2023-07-20T14:02:05;3.50;;;1.10;;
29344;SDS011;16339;48.748;2.222;2023-07-20T14:04:33;3.47;;;1.00;;
29344;SDS011;16339;48.748;2.222;2023-07-20T14:07:05;2.55;;;1.10;;
29344;SDS011;16339;48.748;2.222;2023-07-20T14:09:36;4.03;;;1.27;;
29344;SDS011;16339;48.748;2.222;2023-07-20T14:12:05;6.75;;;1.20;;
29344;SDS011;16339;48.748;2.222;2023-07-20T14:14:37;3.55;;;1.23;;
29344;SDS011;16339;48.748;2.222;2023-07-20T14:17:06;2.25;;;1.00;;
29344;SDS011;16339;48.748;2.222;2023-07-20T14:19:37;1.90;;;1.08;;
29344;SDS011;16339;48.748;2.222;2023-07-20T14:22:11;15.25;;;1.27;;
29344;SDS011;16339;48.748;2.222;2023-07-20T14:24:39;4.63;;;1.13;;
29344;SDS011;16339;48.748;2.222;2023-07-20T14:27:11;4.95;;;1.58;;
29344;SDS011;16339;48.748;2.222;2023-07-20T14:29:39;2.33;;;1.15;;
29344;SDS011;16339;48.748;2.222;2023-07-20T14:32:06;2.30;;;1.20;;
29344;SDS011;16339;48.748;2.222;2023-07-20T14:34:35;1.17;;;1.10;;
29344;SDS011;16339;48.748;2.222;2023-07-20T14:37:05;3.08;;;1.13;;
29344;SDS011;16339;48.748;2.222;2023-07-20T14:39:37;2.20;;;1.00;;
29344;SDS011;16339;48.748;2.222;2023-07-20T14:42:06;1.48;;;1.20;;
29344;SDS011;16339;48.748;2.222;2023-07-20T14:44:37;1.67;;;1.10;;
29344;SDS011;16339;48.748;2.222;2023-07-20T14:49:51;2.25;;;1.13;;
29344;SDS011;16339;48.748;2.222;2023-07-20T14:52:22;2.35;;;1.20;;
29344;SDS011;16339;48.748;2.222;2023-07-20T14:54:51;2.03;;;1.13;;
29344;SDS011;16339;48.748;2.222;2023-07-20T14:57:20;2.30;;;1.10;;
29344;SDS011;16339;48.748;2.222;2023-07-20T14:59:49;3.22;;;1.20;;
29344;SDS011;16339;48.748;2.222;2023-07-20T15:02:19;1.83;;;1.10;;
29344;SDS011;16339;48.748;2.222;2023-07-20T15:04:48;3.90;;;1.33;;
29344;SDS011;16339;48.748;2.222;2023-07-20T15:07:18;3.47;;;1.33;;
29344;SDS011;16339;48.748;2.222;2023-07-20T15:09:52;2.25;;;1.42;;
29344;SDS011;16339;48.748;2.222;2023-07-20T15:12:20;3.25;;;1.20;;
29344;SDS011;16339;48.748;2.222;2023-07-20T15:15:02;1.83;;;1.13;;
29344;SDS011;16339;48.748;2.222;2023-07-20T15:17:32;1.15;;;1.05;;
29344;SDS011;16339;48.748;2.222;2023-07-20T15:20:02;5.18;;;1.38;;
29344;SDS011;16339;48.748;2.222;2023-07-20T15:22:32;0.90;;;0.90;;
29344;SDS011;16339;48.748;2.222;2023-07-20T15:25:06;4.10;;;1.35;;
29344;SDS011;16339;48.748;2.222;2023-07-20T15:27:36;3.35;;;1.33;;
29344;SDS011;16339;48.748;2.222;2023-07-20T15:30:10;3.08;;;1.17;;
29344;SDS011;16339;48.748;2.222;2023-07-20T15:32:39;1.67;;;1.30;;
29344;SDS011;16339;48.748;2.222;2023-07-20T15:35:11;1.30;;;1.15;;
29344;SDS011;16339;48.748;2.222;2023-07-20T15:37:42;2.95;;;1.30;;
29344;SDS011;16339;48.748;2.222;2023-07-20T15:40:20;1.23;;;1.13;;
29344;SDS011;16339;48.748;2.222;2023-07-20T15:49:12;5.25;;;1.17;;
29344;SDS011;16339;48.748;2.222;2023-07-20T15:51:41;2.55;;;1.20;;
29344;SDS011;16339;48.748;2.222;2023-07-20T15:54:11;2.77;;;1.30;;
29344;SDS011;16339;48.748;2.222;2023-07-20T15:56:46;2.72;;;1.30;;
29344;SDS011;16339;48.748;2.222;2023-07-20T15:59:19;3.83;;;1.40;;
29344;SDS011;16339;48.748;2.222;2023-07-20T16:01:48;1.40;;;1.02;;
29344;SDS011;16339;48.748;2.222;2023-07-20T16:06:50;3.40;;;1.40;;
29344;SDS011;16339;48.748;2.222;2023-07-20T16:09:22;4.95;;;1.52;;
29344;SDS011;16339;48.748;2.222;2023-07-20T16:12:18;3.30;;;1.10;;
29344;SDS011;16339;48.748;2.222;2023-07-20T16:14:53;4.32;;;1.35;;
29344;SDS011;16339;48.748;2.222;2023-07-20T16:17:26;1.65;;;1.10;;
29344;SDS011;16339;48.748;2.222;2023-07-20T16:19:57;2.63;;;1.30;;
29344;SDS011;16339;48.748;2.222;2023-07-20T16:22:26;2.80;;;1.30;;
29344;SDS011;16339;48.748;2.222;2023-07-20T16:24:56;1.10;;;0.90;;
29344;SDS011;16339;48.748;2.222;2023-07-20T16:27:28;4.32;;;1.00;;
29344;SDS011;16339;48.748;2.222;2023-07-20T16:29:56;2.17;;;1.10;;
29344;SDS011;16339;48.748;2.222;2023-07-20T16:32:26;1.70;;;1.10;;
29344;SDS011;16339;48.748;2.222;2023-07-20T16:34:55;3.58;;;1.35;;
29344;SDS011;16339;48.748;2.222;2023-07-20T16:37:28;5.28;;;1.30;;
29344;SDS011;16339;48.748;2.222;2023-07-20T16:39:57;1.42;;;1.05;;
29344;SDS011;16339;48.748;2.222;2023-07-20T16:42:28;6.28;;;1.35;;
29344;SDS011;16339;48.748;2.222;2023-07-20T16:44:57;1.77;;;1.30;;
29344;SDS011;16339;48.748;2.222;2023-07-20T16:47:28;3.50;;;1.23;;
29344;SDS011;16339;48.748;2.222;2023-07-20T16:49:59;3.22;;;1.30;;
29344;SDS011;16339;48.748;2.222;2023-07-20T16:52:28;4.93;;;1.30;;
29344;SDS011;16339;48.748;2.222;2023-07-20T16:54:56;5.63;;;1.15;;
29344;SDS011;16339;48.748;2.222;2023-07-20T16:57:28;1.45;;;1.23;;
29344;SDS011;16339;48.748;2.222;2023-07-20T16:59:57;7.28;;;1.20;;
29344;SDS011;16339;48.748;2.222;2023-07-20T17:02:25;5.32;;;1.20;;
29344;SDS011;16339;48.748;2.222;2023-07-20T17:04:57;3.25;;;1.30;;
29344;SDS011;16339;48.748;2.222;2023-07-20T17:07:26;3.25;;;1.10;;
29344;SDS011;16339;48.748;2.222;2023-07-20T17:09:55;6.18;;;1.30;;
29344;SDS011;16339;48.748;2.222;2023-07-20T17:12:23;4.65;;;1.50;;
29344;SDS011;16339;48.748;2.222;2023-07-20T17:14:56;4.38;;;1.42;;
29344;SDS011;16339;48.748;2.222;2023-07-20T17:17:25;6.75;;;1.20;;
29344;SDS011;16339;48.748;2.222;2023-07-20T17:19:55;5.40;;;1.17;;
29344;SDS011;16339;48.748;2.222;2023-07-20T17:22:24;7.40;;;1.10;;
29344;SDS011;16339;48.748;2.222;2023-07-20T17:24:53;3.08;;;1.48;;
29344;SDS011;16339;48.748;2.222;2023-07-20T17:27:25;4.03;;;1.23;;
29344;SDS011;16339;48.748;2.222;2023-07-20T17:29:56;3.42;;;1.35;;
29344;SDS011;16339;48.748;2.222;2023-07-20T17:32:31;1.88;;;1.23;;
29344;SDS011;16339;48.748;2.222;2023-07-20T17:35:01;10.25;;;1.45;;
29344;SDS011;16339;48.748;2.222;2023-07-20T17:37:34;1.50;;;1.30;;
29344;SDS011;16339;48.748;2.222;2023-07-20T17:40:07;2.72;;;1.42;;
29344;SDS011;16339;48.748;2.222;2023-07-20T17:42:39;2.47;;;1.40;;
29344;SDS011;16339;48.748;2.222;2023-07-20T17:45:11;7.45;;;1.33;;
29344;SDS011;16339;48.748;2.222;2023-07-20T17:47:41;3.83;;;1.27;;
29344;SDS011;16339;48.748;2.222;2023-07-20T17:50:10;4.18;;;1.50;;
29344;SDS011;16339;48.748;2.222;2023-07-20T17:52:41;4.10;;;1.50;;
29344;SDS011;16339;48.748;2.222;2023-07-20T17:55:10;9.48;;;1.48;;
29344;SDS011;16339;48.748;2.222;2023-07-20T17:57:39;7.05;;;1.42;;
29344;SDS011;16339;48.748;2.222;2023-07-20T18:00:11;4.82;;;1.40;;
29344;SDS011;16339;48.748;2.222;2023-07-20T18:02:41;2.50;;;1.73;;
29344;SDS011;16339;48.748;2.222;2023-07-20T18:05:10;9.90;;;1.35;;
29344;SDS011;16339;48.748;2.222;2023-07-20T18:07:39;2.90;;;1.30;;
29344;SDS011;16339;48.748;2.222;2023-07-20T18:10:08;11.07;;;1.65;;
29344;SDS011;16339;48.748;2.222;2023-07-20T18:12:37;5.18;;;1.73;;
29344;SDS011;16339;48.748;2.222;2023-07-20T18:15:06;4.07;;;1.75;;
29344;SDS011;16339;48.748;2.222;2023-07-20T18:17:38;4.20;;;1.50;;
29344;SDS011;16339;48.748;2.222;2023-07-20T18:20:07;3.78;;;1.88;;
29344;SDS011;16339;48.748;2.222;2023-07-20T18:22:37;7.22;;;1.73;;
29344;SDS011;16339;48.748;2.222;2023-07-20T18:25:06;5.70;;;1.90;;
29344;SDS011;16339;48.748;2.222;2023-07-20T18:27:35;10.10;;;2.00;;
29344;SDS011;16339;48.748;2.222;2023-07-20T18:30:06;5.10;;;1.63;;
29344;SDS011;16339;48.748;2.222;2023-07-20T18:32:45;4.80;;;1.50;;
29344;SDS011;16339;48.748;2.222;2023-07-20T18:35:14;4.97;;;1.88;;
29344;SDS011;16339;48.748;2.222;2023-07-20T18:37:43;2.38;;;1.50;;
29344;SDS011;16339;48.748;2.222;2023-07-20T18:40:15;8.73;;;2.35;;
29344;SDS011;16339;48.748;2.222;2023-07-20T18:42:44;10.68;;;1.85;;
29344;SDS011;16339;48.748;2.222;2023-07-20T18:45:12;5.63;;;1.90;;
29344;SDS011;16339;48.748;2.222;2023-07-20T18:47:42;8.18;;;1.70;;
29344;SDS011;16339;48.748;2.222;2023-07-20T18:50:15;2.28;;;1.55;;
29344;SDS011;16339;48.748;2.222;2023-07-20T18:52:44;4.38;;;1.90;;
29344;SDS011;16339;48.748;2.222;2023-07-20T18:55:15;2.65;;;1.50;;
29344;SDS011;16339;48.748;2.222;2023-07-20T18:57:43;1.52;;;1.40;;
29344;SDS011;16339;48.748;2.222;2023-07-20T19:00:13;2.13;;;1.70;;
29344;SDS011;16339;48.748;2.222;2023-07-20T19:05:17;3.03;;;1.40;;
29344;SDS011;16339;48.748;2.222;2023-07-20T19:07:49;2.72;;;1.58;;
29344;SDS011;16339;48.748;2.222;2023-07-20T19:10:21;5.93;;;1.48;;
29344;SDS011;16339;48.748;2.222;2023-07-20T19:15:47;3.22;;;1.63;;
29344;SDS011;16339;48.748;2.222;2023-07-20T19:22:01;3.70;;;1.60;;
29344;SDS011;16339;48.748;2.222;2023-07-20T19:25:12;3.47;;;1.70;;
29344;SDS011;16339;48.748;2.222;2023-07-20T19:27:48;6.07;;;2.00;;